sensor_id;sensor_type;location;lat;lon;timestamp;pressure;altitude;pressure_sealevel;temperature;humidity
43804;BME280;29430;52.924;-2.388;2024-03-25T00:00:07;98192.22;;;7.35;83.84
43804;BME280;29430;52.924;-2.388;2024-03-25T00:05:08;98181.91;;;7.32;84.19
43804;BME280;29430;52.924;-2.388;2024-03-25T00:10:03;98172.28;;;7.24;84.22
43804;BME280;29430;52.924;-2.388;2024-03-25T00:14:54;98164.91;;;7.20;84.76
43804;BME280;29430;52.924;-2.388;2024-03-25T00:19:48;98145.94;;;7.14;85.57
43804;BME280;29430;52.924;-2.388;2024-03-25T00:24:41;98136.19;;;7.13;85.62
43804;BME280;29430;52.924;-2.388;2024-03-25T00:29:32;98135.59;;;7.11;84.79
43804;BME280;29430;52.924;-2.388;2024-03-25T00:34:24;98116.16;;;7.09;84.56
43804;BME280;29430;52.924;-2.388;2024-03-25T00:39:14;98109.13;;;7.08;84.13
43804;BME280;29430;52.924;-2.388;2024-03-25T00:44:05;98103.16;;;7.06;83.63
43804;BME280;29430;52.924;-2.388;2024-03-25T00:48:56;98097.63;;;7.01;82.62
43804;BME280;29430;52.924;-2.388;2024-03-25T00:53:46;98083.09;;;7.02;83.06
43804;BME280;29430;52.924;-2.388;2024-03-25T00:58:37;98087.44;;;7.03;83.96
43804;BME280;29430;52.924;-2.388;2024-03-25T01:03:28;98083.34;;;7.01;84.41
43804;BME280;29430;52.924;-2.388;2024-03-25T01:08:18;98070.09;;;6.99;84.71
43804;BME280;29430;52.924;-2.388;2024-03-25T01:13:10;98060.59;;;6.96;84.81
43804;BME280;29430;52.924;-2.388;2024-03-25T01:18:01;98054.84;;;6.93;85.35
43804;BME280;29430;52.924;-2.388;2024-03-25T01:22:52;98038.34;;;6.89;85.34
43804;BME280;29430;52.924;-2.388;2024-03-25T01:27:42;98038.69;;;6.93;84.75
43804;BME280;29430;52.924;-2.388;2024-03-25T01:32:33;98021.72;;;6.92;84.82
43804;BME280;29430;52.924;-2.388;2024-03-25T01:37:23;98029.09;;;6.97;83.94
43804;BME280;29430;52.924;-2.388;2024-03-25T01:42:14;98012.91;;;6.97;83.94
43804;BME280;29430;52.924;-2.388;2024-03-25T01:47:05;98005.88;;;6.96;83.95
43804;BME280;29430;52.924;-2.388;2024-03-25T01:51:57;98002.38;;;6.95;84.02
43804;BME280;29430;52.924;-2.388;2024-03-25T01:56:49;97995.34;;;6.94;83.72
43804;BME280;29430;52.924;-2.388;2024-03-25T02:01:40;97979.72;;;6.96;84.48
43804;BME280;29430;52.924;-2.388;2024-03-25T02:06:32;97960.28;;;6.94;84.91
43804;BME280;29430;52.924;-2.388;2024-03-25T02:11:23;97955.94;;;6.93;85.94
43804;BME280;29430;52.924;-2.388;2024-03-25T02:16:15;97946.47;;;6.91;86.63
43804;BME280;29430;52.924;-2.388;2024-03-25T02:21:06;97937.78;;;6.89;87.28
43804;BME280;29430;52.924;-2.388;2024-03-25T02:25:57;97925.97;;;6.90;88.65
43804;BME280;29430;52.924;-2.388;2024-03-25T02:30:48;97919.41;;;6.86;88.92
43804;BME280;29430;52.924;-2.388;2024-03-25T02:35:40;97900.69;;;6.79;90.00
43804;BME280;29430;52.924;-2.388;2024-03-25T02:40:32;97896.09;;;6.79;90.40
43804;BME280;29430;52.924;-2.388;2024-03-25T02:45:23;97894.50;;;6.78;91.43
43804;BME280;29430;52.924;-2.388;2024-03-25T02:50:13;97876.91;;;6.76;91.67
43804;BME280;29430;52.924;-2.388;2024-03-25T02:55:04;97875.50;;;6.73;91.74
43804;BME280;29430;52.924;-2.388;2024-03-25T02:59:55;97866.84;;;6.71;91.55
43804;BME280;29430;52.924;-2.388;2024-03-25T03:04:46;97858.78;;;6.71;91.74
43804;BME280;29430;52.924;-2.388;2024-03-25T03:09:37;97851.16;;;6.68;91.32
43804;BME280;29430;52.924;-2.388;2024-03-25T03:14:28;97849.75;;;6.66;92.55
43804;BME280;29430;52.924;-2.388;2024-03-25T03:19:19;97838.41;;;6.63;92.65
43804;BME280;29430;52.924;-2.388;2024-03-25T03:24:10;97831.84;;;6.59;93.03
43804;BME280;29430;52.924;-2.388;2024-03-25T03:29:00;97828.34;;;6.59;94.40
43804;BME280;29430;52.924;-2.388;2024-03-25T03:33:51;97816.41;;;6.55;95.28
43804;BME280;29430;52.924;-2.388;2024-03-25T03:38:42;97806.13;;;6.52;96.75
43804;BME280;29430;52.924;-2.388;2024-03-25T03:43:32;97808.16;;;6.44;98.01
43804;BME280;29430;52.924;-2.388;2024-03-25T03:48:23;97808.03;;;6.39;99.56
43804;BME280;29430;52.924;-2.388;2024-03-25T03:53:14;97796.34;;;6.34;100.00
43804;BME280;29430;52.924;-2.388;2024-03-25T03:58:05;97794.59;;;6.27;100.00
43804;BME280;29430;52.924;-2.388;2024-03-25T04:02:55;97786.63;;;6.21;100.00
43804;BME280;29430;52.924;-2.388;2024-03-25T04:07:46;97780.69;;;6.19;100.00
43804;BME280;29430;52.924;-2.388;2024-03-25T04:12:39;97766.28;;;6.13;100.00
43804;BME280;29430;52.924;-2.388;2024-03-25T04:17:30;97767.25;;;6.07;100.00
43804;BME280;29430;52.924;-2.388;2024-03-25T04:22:21;97761.28;;;6.05;100.00
43804;BME280;29430;52.924;-2.388;2024-03-25T04:27:12;97756.13;;;6.03;100.00
43804;BME280;29430;52.924;-2.388;2024-03-25T04:32:04;97753.69;;;6.02;100.00
43804;BME280;29430;52.924;-2.388;2024-03-25T04:36:57;97747.72;;;6.00;100.00
43804;BME280;29430;52.924;-2.388;2024-03-25T04:41:48;97742.59;;;5.98;100.00
43804;BME280;29430;52.924;-2.388;2024-03-25T04:46:39;97733.06;;;5.96;100.00
43804;BME280;29430;52.924;-2.388;2024-03-25T04:51:30;97730.19;;;5.97;100.00
43804;BME280;29430;52.924;-2.388;2024-03-25T04:56:22;97730.50;;;6.01;100.00
43804;BME280;29430;52.924;-2.388;2024-03-25T05:01:12;97722.09;;;5.97;100.00
43804;BME280;29430;52.924;-2.388;2024-03-25T05:06:04;97710.13;;;5.93;100.00
43804;BME280;29430;52.924;-2.388;2024-03-25T05:10:56;97721.13;;;5.91;100.00
43804;BME280;29430;52.924;-2.388;2024-03-25T05:15:50;97704.44;;;5.89;100.00
43804;BME280;29430;52.924;-2.388;2024-03-25T05:20:41;97710.13;;;5.93;100.00
43804;BME280;29430;52.924;-2.388;2024-03-25T05:25:32;97703.72;;;5.94;100.00
43804;BME280;29430;52.924;-2.388;2024-03-25T05:30:23;97677.63;;;5.95;100.00
43804;BME280;29430;52.924;-2.388;2024-03-25T05:35:13;97683.84;;;5.95;100.00
43804;BME280;29430;52.924;-2.388;2024-03-25T05:40:04;97677.63;;;5.95;100.00
43804;BME280;29430;52.924;-2.388;2024-03-25T05:44:55;97678.81;;;5.99;100.00
43804;BME280;29430;52.924;-2.388;2024-03-25T05:49:47;97664.78;;;5.97;100.00
43804;BME280;29430;52.924;-2.388;2024-03-25T05:54:37;97661.88;;;5.98;100.00
43804;BME280;29430;52.924;-2.388;2024-03-25T05:59:28;97664.31;;;6.00;100.00
43804;BME280;29430;52.924;-2.388;2024-03-25T06:04:19;97642.63;;;5.95;100.00
43804;BME280;29430;52.924;-2.388;2024-03-25T06:09:10;97646.97;;;5.96;100.00
43804;BME280;29430;52.924;-2.388;2024-03-25T06:14:01;97637.50;;;5.93;100.00
43804;BME280;29430;52.924;-2.388;2024-03-25T06:18:51;97625.34;;;5.90;100.00
43804;BME280;29430;52.924;-2.388;2024-03-25T06:23:43;97622.91;;;5.89;100.00
43804;BME280;29430;52.924;-2.388;2024-03-25T06:28:34;97622.91;;;5.89;100.00
43804;BME280;29430;52.924;-2.388;2024-03-25T06:33:25;97611.91;;;5.90;100.00
43804;BME280;29430;52.924;-2.388;2024-03-25T06:38:35;97605.91;;;5.88;100.00
43804;BME280;29430;52.924;-2.388;2024-03-25T06:43:25;97608.63;;;5.88;100.00
43804;BME280;29430;52.924;-2.388;2024-03-25T06:48:16;97615.63;;;5.89;100.00
43804;BME280;29430;52.924;-2.388;2024-03-25T06:53:07;97595.41;;;5.87;100.00
43804;BME280;29430;52.924;-2.388;2024-03-25T06:57:57;97600.53;;;5.88;100.00
43804;BME280;29430;52.924;-2.388;2024-03-25T07:02:48;97598.94;;;5.87;100.00
43804;BME280;29430;52.924;-2.388;2024-03-25T07:07:39;97600.31;;;5.90;100.00
43804;BME280;29430;52.924;-2.388;2024-03-25T07:12:30;97586.28;;;5.88;100.00
43804;BME280;29430;52.924;-2.388;2024-03-25T07:17:21;97582.06;;;5.92;100.00
43804;BME280;29430;52.924;-2.388;2024-03-25T07:22:12;97590.13;;;5.92;100.00
43804;BME280;29430;52.924;-2.388;2024-03-25T07:27:03;97559.94;;;5.90;100.00
43804;BME280;29430;52.924;-2.388;2024-03-25T07:31:53;97567.44;;;5.88;100.00
43804;BME280;29430;52.924;-2.388;2024-03-25T07:36:44;97566.41;;;5.89;100.00
43804;BME280;29430;52.924;-2.388;2024-03-25T07:41:35;97575.84;;;5.91;100.00
43804;BME280;29430;52.924;-2.388;2024-03-25T07:46:25;97552.13;;;5.88;100.00
43804;BME280;29430;52.924;-2.388;2024-03-25T07:51:16;97558.66;;;5.92;100.00
43804;BME280;29430;52.924;-2.388;2024-03-25T07:56:06;97547.66;;;5.94;100.00
43804;BME280;29430;52.924;-2.388;2024-03-25T08:00:57;97552.34;;;5.99;100.00
43804;BME280;29430;52.924;-2.388;2024-03-25T08:05:48;97556.19;;;6.03;100.00
43804;BME280;29430;52.924;-2.388;2024-03-25T08:10:38;97552.44;;;6.04;100.00
43804;BME280;29430;52.924;-2.388;2024-03-25T08:15:29;97546.31;;;6.08;100.00
43804;BME280;29430;52.924;-2.388;2024-03-25T08:20:20;97549.94;;;6.14;100.00
43804;BME280;29430;52.924;-2.388;2024-03-25T08:25:10;97543.25;;;6.17;100.00
43804;BME280;29430;52.924;-2.388;2024-03-25T08:30:01;97557.03;;;6.20;100.00
43804;BME280;29430;52.924;-2.388;2024-03-25T08:34:52;97533.38;;;6.22;100.00
43804;BME280;29430;52.924;-2.388;2024-03-25T08:39:42;97540.81;;;6.32;100.00
43804;BME280;29430;52.924;-2.388;2024-03-25T08:44:33;97528.16;;;6.33;100.00
43804;BME280;29430;52.924;-2.388;2024-03-25T08:49:23;97536.66;;;6.41;100.00
43804;BME280;29430;52.924;-2.388;2024-03-25T08:54:14;97532.41;;;6.45;100.00
43804;BME280;29430;52.924;-2.388;2024-03-25T08:59:05;97536.00;;;6.51;100.00
43804;BME280;29430;52.924;-2.388;2024-03-25T09:03:56;97533.84;;;6.53;100.00
43804;BME280;29430;52.924;-2.388;2024-03-25T09:08:47;97532.56;;;6.56;100.00
43804;BME280;29430;52.924;-2.388;2024-03-25T09:13:56;97526.69;;;6.59;100.00
43804;BME280;29430;52.924;-2.388;2024-03-25T09:18:47;97543.16;;;6.62;100.00
43804;BME280;29430;52.924;-2.388;2024-03-25T09:23:37;97527.09;;;6.68;100.00
43804;BME280;29430;52.924;-2.388;2024-03-25T09:28:28;97522.50;;;6.68;100.00
43804;BME280;29430;52.924;-2.388;2024-03-25T09:33:20;97506.41;;;6.73;100.00
43804;BME280;29430;52.924;-2.388;2024-03-25T09:38:10;97519.13;;;6.78;100.00
43804;BME280;29430;52.924;-2.388;2024-03-25T09:43:02;97510.56;;;6.81;100.00
43804;BME280;29430;52.924;-2.388;2024-03-25T09:47:54;97508.47;;;6.83;100.00
43804;BME280;29430;52.924;-2.388;2024-03-25T09:52:46;97507.97;;;6.86;100.00
43804;BME280;29430;52.924;-2.388;2024-03-25T09:57:37;97495.03;;;6.88;100.00
43804;BME280;29430;52.924;-2.388;2024-03-25T10:02:29;97489.16;;;6.91;100.00
43804;BME280;29430;52.924;-2.388;2024-03-25T10:07:22;97498.94;;;6.97;100.00
43804;BME280;29430;52.924;-2.388;2024-03-25T10:12:13;97494.94;;;7.00;100.00
43804;BME280;29430;52.924;-2.388;2024-03-25T10:17:04;97487.47;;;7.07;100.00
43804;BME280;29430;52.924;-2.388;2024-03-25T10:22:02;97480.78;;;7.10;100.00
43804;BME280;29430;52.924;-2.388;2024-03-25T10:26:53;97467.03;;;7.11;100.00
43804;BME280;29430;52.924;-2.388;2024-03-25T10:31:58;97483.09;;;7.23;100.00
43804;BME280;29430;52.924;-2.388;2024-03-25T10:36:49;97470.16;;;7.25;100.00
43804;BME280;29430;52.924;-2.388;2024-03-25T10:41:41;97470.47;;;7.29;100.00
43804;BME280;29430;52.924;-2.388;2024-03-25T10:46:34;97472.41;;;7.33;100.00
43804;BME280;29430;52.924;-2.388;2024-03-25T10:51:27;97466.50;;;7.37;100.00
43804;BME280;29430;52.924;-2.388;2024-03-25T10:56:21;97467.91;;;7.39;100.00
43804;BME280;29430;52.924;-2.388;2024-03-25T11:01:12;97457.63;;;7.36;100.00
43804;BME280;29430;52.924;-2.388;2024-03-25T11:06:03;97448.22;;;7.39;100.00
43804;BME280;29430;52.924;-2.388;2024-03-25T11:10:55;97458.75;;;7.40;100.00
43804;BME280;29430;52.924;-2.388;2024-03-25T11:15:48;97448.00;;;7.45;100.00
43804;BME280;29430;52.924;-2.388;2024-03-25T11:20:40;97429.44;;;7.49;100.00
43804;BME280;29430;52.924;-2.388;2024-03-25T11:25:30;97435.69;;;7.55;100.00
43804;BME280;29430;52.924;-2.388;2024-03-25T11:30:21;97423.84;;;7.56;100.00
43804;BME280;29430;52.924;-2.388;2024-03-25T11:35:16;97426.28;;;7.57;100.00
43804;BME280;29430;52.924;-2.388;2024-03-25T11:40:11;97426.03;;;7.59;100.00
43804;BME280;29430;52.924;-2.388;2024-03-25T11:45:03;97427.47;;;7.66;100.00
43804;BME280;29430;52.924;-2.388;2024-03-25T11:49:55;97411.28;;;7.66;100.00
43804;BME280;29430;52.924;-2.388;2024-03-25T11:54:53;97409.13;;;7.68;100.00
43804;BME280;29430;52.924;-2.388;2024-03-25T11:59:44;97419.16;;;7.73;100.00
43804;BME280;29430;52.924;-2.388;2024-03-25T12:04:35;97404.00;;;7.72;100.00
43804;BME280;29430;52.924;-2.388;2024-03-25T12:09:25;97413.19;;;7.71;100.00
43804;BME280;29430;52.924;-2.388;2024-03-25T12:14:35;97392.69;;;7.70;100.00
43804;BME280;29430;52.924;-2.388;2024-03-25T12:19:25;97385.97;;;7.73;100.00
43804;BME280;29430;52.924;-2.388;2024-03-25T12:24:16;97372.16;;;7.69;100.00
43804;BME280;29430;52.924;-2.388;2024-03-25T12:29:08;97361.09;;;7.70;100.00
43804;BME280;29430;52.924;-2.388;2024-03-25T12:33:59;97376.78;;;7.74;100.00
43804;BME280;29430;52.924;-2.388;2024-03-25T12:38:54;97361.69;;;7.73;100.00
43804;BME280;29430;52.924;-2.388;2024-03-25T12:43:45;97359.53;;;7.75;100.00
43804;BME280;29430;52.924;-2.388;2024-03-25T12:48:39;97353.88;;;7.76;100.00
43804;BME280;29430;52.924;-2.388;2024-03-25T12:53:31;97343.69;;;7.83;100.00
43804;BME280;29430;52.924;-2.388;2024-03-25T12:58:22;97346.66;;;7.87;100.00
43804;BME280;29430;52.924;-2.388;2024-03-25T13:03:14;97344.00;;;7.92;100.00
43804;BME280;29430;52.924;-2.388;2024-03-25T13:08:05;97334.31;;;7.96;100.00
43804;BME280;29430;52.924;-2.388;2024-03-25T13:12:56;97330.84;;;8.01;100.00
43804;BME280;29430;52.924;-2.388;2024-03-25T13:17:47;97334.06;;;8.03;100.00
43804;BME280;29430;52.924;-2.388;2024-03-25T13:22:38;97333.53;;;8.01;100.00
43804;BME280;29430;52.924;-2.388;2024-03-25T13:27:30;97314.63;;;8.01;100.00
43804;BME280;29430;52.924;-2.388;2024-03-25T13:32:21;97307.09;;;8.03;100.00
43804;BME280;29430;52.924;-2.388;2024-03-25T13:37:13;97304.97;;;8.05;100.00
43804;BME280;29430;52.924;-2.388;2024-03-25T13:42:04;97309.25;;;8.06;100.00
43804;BME280;29430;52.924;-2.388;2024-03-25T13:46:55;97295.25;;;8.09;100.00
43804;BME280;29430;52.924;-2.388;2024-03-25T13:51:46;97294.19;;;8.15;100.00
43804;BME280;29430;52.924;-2.388;2024-03-25T13:56:37;97296.97;;;8.25;100.00
43804;BME280;29430;52.924;-2.388;2024-03-25T14:01:27;97289.97;;;8.35;100.00
43804;BME280;29430;52.924;-2.388;2024-03-25T14:06:18;97283.81;;;8.45;100.00
43804;BME280;29430;52.924;-2.388;2024-03-25T14:11:09;97273.88;;;8.50;100.00
43804;BME280;29430;52.924;-2.388;2024-03-25T14:16:00;97263.59;;;8.52;100.00
43804;BME280;29430;52.924;-2.388;2024-03-25T14:20:51;97259.28;;;8.56;100.00
43804;BME280;29430;52.924;-2.388;2024-03-25T14:25:42;97252.81;;;8.57;100.00
43804;BME280;29430;52.924;-2.388;2024-03-25T14:30:33;97257.94;;;8.54;100.00
43804;BME280;29430;52.924;-2.388;2024-03-25T14:35:23;97248.47;;;8.51;100.00
43804;BME280;29430;52.924;-2.388;2024-03-25T14:40:15;97244.16;;;8.50;100.00
43804;BME280;29430;52.924;-2.388;2024-03-25T14:45:07;97242.78;;;8.48;100.00
43804;BME280;29430;52.924;-2.388;2024-03-25T14:49:58;97233.34;;;8.45;100.00
43804;BME280;29430;52.924;-2.388;2024-03-25T14:54:49;97222.81;;;8.49;100.00
43804;BME280;29430;52.924;-2.388;2024-03-25T14:59:40;97211.72;;;8.55;100.00
43804;BME280;29430;52.924;-2.388;2024-03-25T15:04:30;97209.59;;;8.68;100.00
43804;BME280;29430;52.924;-2.388;2024-03-25T15:09:22;97209.34;;;8.80;100.00
43804;BME280;29430;52.924;-2.388;2024-03-25T15:14:13;97194.22;;;8.89;100.00
43804;BME280;29430;52.924;-2.388;2024-03-25T15:19:04;97189.09;;;8.87;100.00
43804;BME280;29430;52.924;-2.388;2024-03-25T15:23:54;97182.88;;;8.87;100.00
43804;BME280;29430;52.924;-2.388;2024-03-25T15:28:46;97188.81;;;8.94;100.00
43804;BME280;29430;52.924;-2.388;2024-03-25T15:33:37;97184.75;;;9.02;100.00
43804;BME280;29430;52.924;-2.388;2024-03-25T15:38:27;97182.63;;;9.04;100.00
43804;BME280;29430;52.924;-2.388;2024-03-25T15:43:18;97170.44;;;9.06;100.00
43804;BME280;29430;52.924;-2.388;2024-03-25T15:48:09;97169.63;;;9.06;100.00
43804;BME280;29430;52.924;-2.388;2024-03-25T15:53:00;97163.97;;;9.07;100.00
43804;BME280;29430;52.924;-2.388;2024-03-25T15:57:53;97150.41;;;9.12;100.00
43804;BME280;29430;52.924;-2.388;2024-03-25T16:02:44;97150.97;;;9.14;100.00
43804;BME280;29430;52.924;-2.388;2024-03-25T16:07:35;97153.41;;;9.16;100.00
43804;BME280;29430;52.924;-2.388;2024-03-25T16:12:26;97150.44;;;9.18;100.00
43804;BME280;29430;52.924;-2.388;2024-03-25T16:17:17;97150.16;;;9.14;100.00
43804;BME280;29430;52.924;-2.388;2024-03-25T16:22:08;97142.88;;;9.14;100.00
43804;BME280;29430;52.924;-2.388;2024-03-25T16:26:58;97136.09;;;9.12;100.00
43804;BME280;29430;52.924;-2.388;2024-03-25T16:31:49;97129.34;;;9.09;100.00
43804;BME280;29430;52.924;-2.388;2024-03-25T16:36:40;97128.81;;;9.07;100.00
43804;BME280;29430;52.924;-2.388;2024-03-25T16:41:31;97131.78;;;9.06;100.00
43804;BME280;29430;52.924;-2.388;2024-03-25T16:46:22;97121.50;;;9.03;100.00
43804;BME280;29430;52.924;-2.388;2024-03-25T16:51:14;97126.38;;;9.01;100.00
43804;BME280;29430;52.924;-2.388;2024-03-25T16:56:05;97129.34;;;9.04;100.00
43804;BME280;29430;52.924;-2.388;2024-03-25T17:00:57;97132.84;;;9.05;100.00
43804;BME280;29430;52.924;-2.388;2024-03-25T17:05:51;97125.31;;;9.07;100.00
43804;BME280;29430;52.924;-2.388;2024-03-25T17:10:42;97123.41;;;9.07;100.00
43804;BME280;29430;52.924;-2.388;2024-03-25T17:15:33;97116.63;;;9.05;100.00
43804;BME280;29430;52.924;-2.388;2024-03-25T17:20:23;97115.81;;;9.04;100.00
43804;BME280;29430;52.924;-2.388;2024-03-25T17:25:14;97115.56;;;9.01;100.00
43804;BME280;29430;52.924;-2.388;2024-03-25T17:30:06;97106.91;;;8.93;100.00
43804;BME280;29430;52.924;-2.388;2024-03-25T17:34:56;97121.53;;;8.87;100.00
43804;BME280;29430;52.924;-2.388;2024-03-25T17:39:47;97111.78;;;8.81;100.00
43804;BME280;29430;52.924;-2.388;2024-03-25T17:44:38;97119.34;;;8.74;100.00
43804;BME280;29430;52.924;-2.388;2024-03-25T17:49:29;97120.44;;;8.73;100.00
43804;BME280;29430;52.924;-2.388;2024-03-25T17:54:20;97124.22;;;8.67;100.00
43804;BME280;29430;52.924;-2.388;2024-03-25T17:59:11;97126.09;;;8.61;100.00
43804;BME280;29430;52.924;-2.388;2024-03-25T18:04:02;97123.13;;;8.57;100.00
43804;BME280;29430;52.924;-2.388;2024-03-25T18:08:53;97127.44;;;8.53;100.00
43804;BME280;29430;52.924;-2.388;2024-03-25T18:13:44;97130.16;;;8.48;100.00
43804;BME280;29430;52.924;-2.388;2024-03-25T18:18:34;97125.81;;;8.47;100.00
43804;BME280;29430;52.924;-2.388;2024-03-25T18:23:25;97146.91;;;8.45;100.00
43804;BME280;29430;52.924;-2.388;2024-03-25T18:28:16;97132.53;;;8.39;100.00
43804;BME280;29430;52.924;-2.388;2024-03-25T18:33:07;97131.72;;;8.39;100.00
43804;BME280;29430;52.924;-2.388;2024-03-25T18:37:58;97137.66;;;8.36;100.00
43804;BME280;29430;52.924;-2.388;2024-03-25T18:42:49;97131.44;;;8.35;100.00
43804;BME280;29430;52.924;-2.388;2024-03-25T18:47:39;97138.47;;;8.31;100.00
43804;BME280;29430;52.924;-2.388;2024-03-25T18:52:30;97138.16;;;8.28;100.00
43804;BME280;29430;52.924;-2.388;2024-03-25T18:57:21;97140.34;;;8.25;100.00
43804;BME280;29430;52.924;-2.388;2024-03-25T19:02:12;97139.50;;;8.20;100.00
43804;BME280;29430;52.924;-2.388;2024-03-25T19:07:03;97141.66;;;8.18;100.00
43804;BME280;29430;52.924;-2.388;2024-03-25T19:11:53;97136.78;;;8.15;100.00
43804;BME280;29430;52.924;-2.388;2024-03-25T19:16:44;97131.94;;;8.12;100.00
43804;BME280;29430;52.924;-2.388;2024-03-25T19:21:35;97121.13;;;8.06;100.00
43804;BME280;29430;52.924;-2.388;2024-03-25T19:26:26;97119.22;;;8.07;100.00
43804;BME280;29430;52.924;-2.388;2024-03-25T19:31:16;97116.53;;;8.02;100.00
43804;BME280;29430;52.924;-2.388;2024-03-25T19:36:07;97127.03;;;7.98;100.00
43804;BME280;29430;52.924;-2.388;2024-03-25T19:40:58;97129.44;;;7.95;100.00
43804;BME280;29430;52.924;-2.388;2024-03-25T19:45:48;97121.88;;;7.92;100.00
43804;BME280;29430;52.924;-2.388;2024-03-25T19:50:39;97121.34;;;7.89;100.00
43804;BME280;29430;52.924;-2.388;2024-03-25T19:55:30;97109.19;;;7.87;100.00
43804;BME280;29430;52.924;-2.388;2024-03-25T20:00:20;97120.25;;;7.85;100.00
43804;BME280;29430;52.924;-2.388;2024-03-25T20:05:11;97115.63;;;7.86;100.00
43804;BME280;29430;52.924;-2.388;2024-03-25T20:10:03;97119.97;;;7.87;100.00
43804;BME280;29430;52.924;-2.388;2024-03-25T20:14:53;97109.72;;;7.84;100.00
43804;BME280;29430;52.924;-2.388;2024-03-25T20:19:44;97109.16;;;7.82;100.00
43804;BME280;29430;52.924;-2.388;2024-03-25T20:24:35;97115.91;;;7.84;100.00
43804;BME280;29430;52.924;-2.388;2024-03-25T20:29:25;97114.03;;;7.85;100.00
43804;BME280;29430;52.924;-2.388;2024-03-25T20:34:16;97114.31;;;7.83;100.00
43804;BME280;29430;52.924;-2.388;2024-03-25T20:39:07;97111.06;;;7.86;100.00
43804;BME280;29430;52.924;-2.388;2024-03-25T20:43:58;97108.38;;;7.86;100.00
43804;BME280;29430;52.924;-2.388;2024-03-25T20:48:48;97116.47;;;7.86;100.00
43804;BME280;29430;52.924;-2.388;2024-03-25T20:53:39;97099.72;;;7.79;100.00
43804;BME280;29430;52.924;-2.388;2024-03-25T20:58:30;97102.94;;;7.76;100.00
43804;BME280;29430;52.924;-2.388;2024-03-25T21:03:21;97115.31;;;7.72;100.00
43804;BME280;29430;52.924;-2.388;2024-03-25T21:08:11;97106.41;;;7.66;100.00
43804;BME280;29430;52.924;-2.388;2024-03-25T21:13:03;97115.56;;;7.60;100.00
43804;BME280;29430;52.924;-2.388;2024-03-25T21:17:53;97125.22;;;7.56;100.00
43804;BME280;29430;52.924;-2.388;2024-03-25T21:22:44;97113.91;;;7.54;100.00
43804;BME280;29430;52.924;-2.388;2024-03-25T21:27:35;97106.88;;;7.48;100.00
43804;BME280;29430;52.924;-2.388;2024-03-25T21:32:25;97103.88;;;7.44;100.00
43804;BME280;29430;52.924;-2.388;2024-03-25T21:37:17;97101.69;;;7.41;100.00
43804;BME280;29430;52.924;-2.388;2024-03-25T21:42:08;97098.72;;;7.38;100.00
43804;BME280;29430;52.924;-2.388;2024-03-25T21:46:58;97099.25;;;7.34;100.00
43804;BME280;29430;52.924;-2.388;2024-03-25T21:51:49;97099.50;;;7.33;100.00
43804;BME280;29430;52.924;-2.388;2024-03-25T21:56:40;97102.19;;;7.33;100.00
43804;BME280;29430;52.924;-2.388;2024-03-25T22:01:31;97092.22;;;7.33;100.00
43804;BME280;29430;52.924;-2.388;2024-03-25T22:06:22;97091.41;;;7.33;100.00
43804;BME280;29430;52.924;-2.388;2024-03-25T22:11:13;97091.16;;;7.34;100.00
43804;BME280;29430;52.924;-2.388;2024-03-25T22:16:03;97081.16;;;7.35;100.00
43804;BME280;29430;52.924;-2.388;2024-03-25T22:20:54;97070.38;;;7.35;100.00
43804;BME280;29430;52.924;-2.388;2024-03-25T22:25:45;97073.06;;;7.35;100.00
43804;BME280;29430;52.924;-2.388;2024-03-25T22:30:36;97076.34;;;7.37;100.00
43804;BME280;29430;52.924;-2.388;2024-03-25T22:35:27;97069.06;;;7.38;100.00
43804;BME280;29430;52.924;-2.388;2024-03-25T22:40:18;97068.53;;;7.41;100.00
43804;BME280;29430;52.924;-2.388;2024-03-25T22:45:08;97058.00;;;7.39;100.00
43804;BME280;29430;52.924;-2.388;2024-03-25T22:49:59;97057.75;;;7.41;100.00
43804;BME280;29430;52.924;-2.388;2024-03-25T22:54:50;97042.88;;;7.38;100.00
43804;BME280;29430;52.924;-2.388;2024-03-25T22:59:40;97042.09;;;7.38;100.00
43804;BME280;29430;52.924;-2.388;2024-03-25T23:04:31;97035.91;;;7.37;100.00
43804;BME280;29430;52.924;-2.388;2024-03-25T23:09:22;97036.16;;;7.35;100.00
43804;BME280;29430;52.924;-2.388;2024-03-25T23:14:13;97022.09;;;7.33;100.00
43804;BME280;29430;52.924;-2.388;2024-03-25T23:19:04;97024.81;;;7.33;100.00
43804;BME280;29430;52.924;-2.388;2024-03-25T23:23:55;97023.47;;;7.31;100.00
43804;BME280;29430;52.924;-2.388;2024-03-25T23:28:45;97027.22;;;7.30;100.00
43804;BME280;29430;52.924;-2.388;2024-03-25T23:33:36;97019.66;;;7.27;100.00
43804;BME280;29430;52.924;-2.388;2024-03-25T23:38:29;97014.78;;;7.24;100.00
43804;BME280;29430;52.924;-2.388;2024-03-25T23:43:20;97011.56;;;7.22;100.00
43804;BME280;29430;52.924;-2.388;2024-03-25T23:48:11;97006.44;;;7.20;100.00
43804;BME280;29430;52.924;-2.388;2024-03-25T23:53:01;97005.06;;;7.17;100.00
43804;BME280;29430;52.924;-2.388;2024-03-25T23:57:52;96993.75;;;7.15;100.00
